Overview Statistics Trail Chart Weather Telemetry Raw packets
 

This is the latest recevied weather packets stored in our database for station/object ED3YAB-7. If no packets are shown the sender has not sent any weather packets the latest 10 day(s).

<< 28 29 30 31 32 33 34 >>
Time Temp. Humidity Pressure Rain* Wind** Luminosity Snow
1777493944 17.22° C 43% 1018.8 hPa - - - -
1777492753 17.78° C 43% 1018.6 hPa - - - -
1777492744 17.78° C 43% 1018.6 hPa - - - -
1777491551 17.78° C 43% 1018.3 hPa - - - -
1777491544 17.78° C 43% 1018.3 hPa - - - -
1777490351 18.33° C 40% 1017.9 hPa - - - -
1777490343 18.33° C 40% 1017.9 hPa - - - -
1777489151 18.89° C 38% 1017.7 hPa - - - -
1777489143 18.89° C 38% 1017.7 hPa - - - -
1777487943 20° C 34% 1017.4 hPa - - - -
1777486758 20.56° C 31% 1016.9 hPa - - - -
1777486743 20.56° C 31% 1016.9 hPa - - - -
1777485543 26.11° C 23% 1016.7 hPa - - - -
1777485204 31.11° C 18% 1016.6 hPa - - - -
1777484011 33.33° C 15% 1016.6 hPa - - - -
1777482811 33.33° C 15% 1016.6 hPa - - - -
1777482804 33.33° C 15% 1016.6 hPa - - - -
1777481611 41.11° C 10% 1016.5 hPa - - - -
1777481604 41.11° C 10% 1016.5 hPa - - - -
1777480404 43.33° C 9% 1016.6 hPa - - - -
1777479211 43.89° C 8% 1016.7 hPa - - - -
1777479203 43.89° C 8% 1016.7 hPa - - - -
1777478011 43.33° C 9% 1016.7 hPa - - - -
1777478003 43.33° C 9% 1016.7 hPa - - - -
1777476810 39.44° C 12% 1016.7 hPa - - - -

* Rain since midnight (hover to see other rain measurements)
** Current wind speed in m/s (hover to see current wind gust speed)